PWSweather.com
Personal Weather Stations
Station Observations
WHAKATANE1
Whakatane, WhakataneNZ

WhakataneWhakataneNZ

Lat: -37.960954, Lon: 176.9768

Elevation: 10

Station Type: Lacrosse

Latest ConditionsUpdated 4:20:00 AM GMT+12:12 Monday, Apr 21, 2014
Currently Today's Max Today's Min Today's Average
Temperature 46.9°F8.3°C 50.4°F10.2°C 46.9°F8.3°C 48.5°F9.2°C
Dew Point 46.7°F8.2°C 50.1°F10.1°C 46.7°F8.2°C 48.2°F9.0°C
Winds 0.8 mph E1.3 kmh E 2.3 mph WNW3.7 kmh WNW - 0.7 mph 1.1 kmh
Wind Gusts 1.6 mph2.6 kmh 3.8 mph6.1 kmh - -
Humidity 99% 99% 99% 99%
Pressure 30.22 in1023.4 mb 30.24 in1024.0 mb 30.22 in1023.4 mb -
Hour Temp Dew Point Humidity Winds Wind Gusts Pressure Precip Precip Rate Daily Precip Total
04:20 AM 46.9°F8.3°C 46.7°F8.2°C 99% 0.8 mph E1.3 kmh E 1.6 mph2.6 kmh 30.22 in1023.4 mb 0.00 in0.0 mm 0.00 in/hr0.0 mm/hr 0.00 in0.0 mm
04:19 AM 46.9°F8.3°C 46.7°F8.2°C 99% 0.7 mph E1.1 kmh E 1.6 mph2.6 kmh 30.22 in1023.4 mb 0.00 in0.0 mm 0.00 in/hr0.0 mm/hr 0.00 in0.0 mm
04:18 AM 46.9°F8.3°C 46.7°F8.2°C 99% 0.7 mph E1.1 kmh E 1.6 mph2.6 kmh 30.22 in1023.4 mb 0.00 in0.0 mm 0.00 in/hr0.0 mm/hr 0.00 in0.0 mm
04:17 AM 46.9°F8.3°C 46.7°F8.2°C 99% 0.7 mph E1.1 kmh E 1.6 mph2.6 kmh 30.22 in1023.4 mb 0.00 in0.0 mm 0.00 in/hr0.0 mm/hr 0.00 in0.0 mm
04:16 AM 46.9°F8.3°C 46.7°F8.2°C 99% 0.7 mph E1.1 kmh E 1.6 mph2.6 kmh 30.22 in1023.4 mb 0.00 in0.0 mm 0.00 in/hr0.0 mm/hr 0.00 in0.0 mm
04:15 AM 46.9°F8.3°C 46.7°F8.2°C 99% 0.6 mph E1.0 kmh E 1.6 mph2.6 kmh 30.22 in1023.4 mb 0.00 in0.0 mm 0.00 in/hr0.0 mm/hr 0.00 in0.0 mm
04:14 AM 46.9°F8.3°C 46.7°F8.2°C 99% 0.5 mph E0.8 kmh E 1.6 mph2.6 kmh 30.22 in1023.4 mb 0.00 in0.0 mm 0.00 in/hr0.0 mm/hr 0.00 in0.0 mm
04:13 AM 46.9°F8.3°C 46.7°F8.2°C 99% 0.4 mph E0.6 kmh E 1.6 mph2.6 kmh 30.22 in1023.4 mb 0.00 in0.0 mm 0.00 in/hr0.0 mm/hr 0.00 in0.0 mm
04:12 AM 46.9°F8.3°C 46.7°F8.2°C 99% 0.4 mph E0.6 kmh E 1.6 mph2.6 kmh 30.22 in1023.4 mb 0.00 in0.0 mm 0.00 in/hr0.0 mm/hr 0.00 in0.0 mm
04:11 AM 46.9°F8.3°C 46.7°F8.2°C 99% 0.4 mph E0.6 kmh E 1.6 mph2.6 kmh 30.22 in1023.4 mb 0.00 in0.0 mm 0.00 in/hr0.0 mm/hr 0.00 in0.0 mm
04:10 AM 46.9°F8.3°C 46.7°F8.2°C 99% 0.2 mph E0.3 kmh E 0.7 mph1.1 kmh 30.23 in1023.7 mb 0.00 in0.0 mm 0.00 in/hr0.0 mm/hr 0.00 in0.0 mm
04:09 AM 47.1°F8.4°C 46.9°F8.3°C 99% 0.3 mph E0.5 kmh E 0.7 mph1.1 kmh 30.23 in1023.7 mb 0.00 in0.0 mm 0.00 in/hr0.0 mm/hr 0.00 in0.0 mm
04:08 AM 47.1°F8.4°C 46.9°F8.3°C 99% 0.2 mph E0.3 kmh E 0.7 mph1.1 kmh 30.22 in1023.4 mb 0.00 in0.0 mm 0.00 in/hr0.0 mm/hr 0.00 in0.0 mm
04:07 AM 47.1°F8.4°C 46.9°F8.3°C 99% 0.2 mph E0.3 kmh E 0.7 mph1.1 kmh 30.23 in1023.7 mb 0.00 in0.0 mm 0.00 in/hr0.0 mm/hr 0.00 in0.0 mm
04:06 AM 47.1°F8.4°C 46.9°F8.3°C 99% 0.2 mph E0.3 kmh E 0.7 mph1.1 kmh 30.22 in1023.4 mb 0.00 in0.0 mm 0.00 in/hr0.0 mm/hr 0.00 in0.0 mm
04:05 AM 47.1°F8.4°C 46.9°F8.3°C 99% 0.2 mph E0.3 kmh E 0.7 mph1.1 kmh 30.22 in1023.4 mb 0.00 in0.0 mm 0.00 in/hr0.0 mm/hr 0.00 in0.0 mm
04:04 AM 47.1°F8.4°C 46.9°F8.3°C 99% 0.2 mph E0.3 kmh E 0.7 mph1.1 kmh 30.23 in1023.7 mb 0.00 in0.0 mm 0.00 in/hr0.0 mm/hr 0.00 in0.0 mm
04:03 AM 47.3°F8.5°C 47.0°F8.3°C 99% 0.1 mph E0.2 kmh E 0.7 mph1.1 kmh 30.22 in1023.4 mb 0.00 in0.0 mm 0.00 in/hr0.0 mm/hr 0.00 in0.0 mm
04:02 AM 47.3°F8.5°C 47.0°F8.3°C 99% 0.2 mph E0.3 kmh E 0.7 mph1.1 kmh 30.22 in1023.4 mb 0.00 in0.0 mm 0.00 in/hr0.0 mm/hr 0.00 in0.0 mm
04:01 AM 47.3°F8.5°C 47.0°F8.3°C 99% 0.2 mph E0.3 kmh E 0.7 mph1.1 kmh 30.23 in1023.7 mb 0.00 in0.0 mm 0.00 in/hr0.0 mm/hr 0.00 in0.0 mm
04:00 AM 47.3°F8.5°C 47.0°F8.3°C 99% 0.2 mph E0.3 kmh E 0.7 mph1.1 kmh 30.22 in1023.4 mb 0.00 in0.0 mm 0.00 in/hr0.0 mm/hr 0.00 in0.0 mm
03:59 AM 47.3°F8.5°C 47.0°F8.3°C 99% 0.2 mph E0.3 kmh E 0.7 mph1.1 kmh 30.22 in1023.4 mb 0.00 in0.0 mm 0.00 in/hr0.0 mm/hr 0.00 in0.0 mm
03:58 AM 47.5°F8.6°C 47.2°F8.4°C 99% 0.2 mph E0.3 kmh E 0.7 mph1.1 kmh 30.22 in1023.4 mb 0.00 in0.0 mm 0.00 in/hr0.0 mm/hr 0.00 in0.0 mm
03:57 AM 47.5°F8.6°C 47.2°F8.4°C 99% 0.4 mph ESE0.6 kmh ESE 1.6 mph2.6 kmh 30.22 in1023.4 mb 0.00 in0.0 mm 0.00 in/hr0.0 mm/hr 0.00 in0.0 mm
03:56 AM 47.5°F8.6°C 47.2°F8.4°C 99% 0.5 mph ESE0.8 kmh ESE 1.6 mph2.6 kmh 30.22 in1023.4 mb 0.00 in0.0 mm 0.00 in/hr0.0 mm/hr 0.00 in0.0 mm
03:55 AM 47.5°F8.6°C 47.2°F8.4°C 99% 0.5 mph ESE0.8 kmh ESE 1.6 mph2.6 kmh 30.22 in1023.4 mb 0.00 in0.0 mm 0.00 in/hr0.0 mm/hr 0.00 in0.0 mm
03:54 AM 47.5°F8.6°C 47.2°F8.4°C 99% 0.6 mph SE1.0 kmh SE 1.6 mph2.6 kmh 30.22 in1023.4 mb 0.00 in0.0 mm 0.00 in/hr0.0 mm/hr 0.00 in0.0 mm
03:53 AM 47.5°F8.6°C 47.2°F8.4°C 99% 0.8 mph SSE1.3 kmh SSE 2.2 mph3.5 kmh 30.22 in1023.4 mb 0.00 in0.0 mm 0.00 in/hr0.0 mm/hr 0.00 in0.0 mm
03:52 AM 47.5°F8.6°C 47.2°F8.4°C 99% 0.9 mph SE1.4 kmh SE 2.2 mph3.5 kmh 30.22 in1023.4 mb 0.00 in0.0 mm 0.00 in/hr0.0 mm/hr 0.00 in0.0 mm
03:51 AM 47.5°F8.6°C 47.2°F8.4°C 99% 1.1 mph ESE1.8 kmh ESE 2.2 mph3.5 kmh 30.22 in1023.4 mb 0.00 in0.0 mm 0.00 in/hr0.0 mm/hr 0.00 in0.0 mm
03:50 AM 47.5°F8.6°C 47.2°F8.4°C 99% 1.2 mph E1.9 kmh E 2.2 mph3.5 kmh 30.22 in1023.4 mb 0.00 in0.0 mm 0.00 in/hr0.0 mm/hr 0.00 in0.0 mm
03:49 AM 47.7°F8.7°C 47.4°F8.6°C 99% 1.3 mph E2.1 kmh E 2.2 mph3.5 kmh 30.22 in1023.4 mb 0.00 in0.0 mm 0.00 in/hr0.0 mm/hr 0.00 in0.0 mm
03:48 AM 47.7°F8.7°C 47.4°F8.6°C 99% 1.3 mph ESE2.1 kmh ESE 2.2 mph3.5 kmh 30.22 in1023.4 mb 0.00 in0.0 mm 0.00 in/hr0.0 mm/hr 0.00 in0.0 mm
03:47 AM 47.5°F8.6°C 47.2°F8.4°C 99% 1.2 mph SE1.9 kmh SE 2.2 mph3.5 kmh 30.22 in1023.4 mb 0.00 in0.0 mm 0.00 in/hr0.0 mm/hr 0.00 in0.0 mm
03:46 AM 47.5°F8.6°C 47.2°F8.4°C 99% 1.2 mph WSW1.9 kmh WSW 2.2 mph3.5 kmh 30.22 in1023.4 mb 0.00 in0.0 mm 0.00 in/hr0.0 mm/hr 0.00 in0.0 mm
03:45 AM 47.5°F8.6°C 47.2°F8.4°C 99% 1.3 mph NW2.1 kmh NW 2.2 mph3.5 kmh 30.22 in1023.4 mb 0.00 in0.0 mm 0.00 in/hr0.0 mm/hr 0.00 in0.0 mm
03:44 AM 47.5°F8.6°C 47.2°F8.4°C 99% 1.3 mph NE2.1 kmh NE 2.2 mph3.5 kmh 30.22 in1023.4 mb 0.00 in0.0 mm 0.00 in/hr0.0 mm/hr 0.00 in0.0 mm
03:43 AM 47.5°F8.6°C 47.2°F8.4°C 99% 1.1 mph NE1.8 kmh NE 2.2 mph3.5 kmh 30.22 in1023.4 mb 0.00 in0.0 mm 0.00 in/hr0.0 mm/hr 0.00 in0.0 mm
03:42 AM 47.5°F8.6°C 47.2°F8.4°C 99% 1.2 mph ENE1.9 kmh ENE 3.1 mph5.0 kmh 30.22 in1023.4 mb 0.00 in0.0 mm 0.00 in/hr0.0 mm/hr 0.00 in0.0 mm
03:41 AM 47.5°F8.6°C 47.2°F8.4°C 99% 1.3 mph E2.1 kmh E 3.1 mph5.0 kmh 30.22 in1023.4 mb 0.00 in0.0 mm 0.00 in/hr0.0 mm/hr 0.00 in0.0 mm
03:40 AM 47.5°F8.6°C 47.2°F8.4°C 99% 1.3 mph ESE2.1 kmh ESE 3.1 mph5.0 kmh 30.22 in1023.4 mb 0.00 in0.0 mm 0.00 in/hr0.0 mm/hr 0.00 in0.0 mm
03:39 AM 47.5°F8.6°C 47.2°F8.4°C 99% 1.3 mph ESE2.1 kmh ESE 3.1 mph5.0 kmh 30.22 in1023.4 mb 0.00 in0.0 mm 0.00 in/hr0.0 mm/hr 0.00 in0.0 mm
03:38 AM 47.5°F8.6°C 47.2°F8.4°C 99% 1.2 mph ESE1.9 kmh ESE 3.1 mph5.0 kmh 30.22 in1023.4 mb 0.00 in0.0 mm 0.00 in/hr0.0 mm/hr 0.00 in0.0 mm
03:37 AM 47.5°F8.6°C 47.2°F8.4°C 99% 1.2 mph ESE1.9 kmh ESE 3.1 mph5.0 kmh 30.22 in1023.4 mb 0.00 in0.0 mm 0.00 in/hr0.0 mm/hr 0.00 in0.0 mm
03:36 AM 47.5°F8.6°C 47.2°F8.4°C 99% 1.2 mph E1.9 kmh E 3.1 mph5.0 kmh 30.22 in1023.4 mb 0.00 in0.0 mm 0.00 in/hr0.0 mm/hr 0.00 in0.0 mm
03:35 AM 47.5°F8.6°C 47.2°F8.4°C 99% 1.2 mph ESE1.9 kmh ESE 3.1 mph5.0 kmh 30.22 in1023.4 mb 0.00 in0.0 mm 0.00 in/hr0.0 mm/hr 0.00 in0.0 mm
03:34 AM 47.5°F8.6°C 47.2°F8.4°C 99% 1.2 mph ESE1.9 kmh ESE 3.1 mph5.0 kmh 30.22 in1023.4 mb 0.00 in0.0 mm 0.00 in/hr0.0 mm/hr 0.00 in0.0 mm
03:33 AM 47.5°F8.6°C 47.2°F8.4°C 99% 1.2 mph SE1.9 kmh SE 3.1 mph5.0 kmh 30.22 in1023.4 mb 0.00 in0.0 mm 0.00 in/hr0.0 mm/hr 0.00 in0.0 mm
03:32 AM 47.3°F8.5°C 47.0°F8.3°C 99% 1.0 mph SE1.6 kmh SE 3.1 mph5.0 kmh 30.22 in1023.4 mb 0.00 in0.0 mm 0.00 in/hr0.0 mm/hr 0.00 in0.0 mm
03:31 AM 47.3°F8.5°C 47.0°F8.3°C 99% 0.8 mph SE1.3 kmh SE 2.2 mph3.5 kmh 30.22 in1023.4 mb 0.00 in0.0 mm 0.00 in/hr0.0 mm/hr 0.00 in0.0 mm
03:30 AM 47.3°F8.5°C 47.0°F8.3°C 99% 0.7 mph SE1.1 kmh SE 1.6 mph2.6 kmh 30.22 in1023.4 mb 0.00 in0.0 mm 0.00 in/hr0.0 mm/hr 0.00 in0.0 mm
03:29 AM 47.5°F8.6°C 47.2°F8.4°C 99% 0.6 mph SE1.0 kmh SE 1.6 mph2.6 kmh 30.22 in1023.4 mb 0.00 in0.0 mm 0.00 in/hr0.0 mm/hr 0.00 in0.0 mm
03:28 AM 47.5°F8.6°C 47.2°F8.4°C 99% 0.7 mph SE1.1 kmh SE 1.6 mph2.6 kmh 30.22 in1023.4 mb 0.00 in0.0 mm 0.00 in/hr0.0 mm/hr 0.00 in0.0 mm
03:27 AM 47.5°F8.6°C 47.2°F8.4°C 99% 0.8 mph SE1.3 kmh SE 1.6 mph2.6 kmh 30.22 in1023.4 mb 0.00 in0.0 mm 0.00 in/hr0.0 mm/hr 0.00 in0.0 mm
03:26 AM 47.3°F8.5°C 47.0°F8.3°C 99% 0.7 mph SE1.1 kmh SE 1.6 mph2.6 kmh 30.22 in1023.4 mb 0.00 in0.0 mm 0.00 in/hr0.0 mm/hr 0.00 in0.0 mm
03:25 AM 47.3°F8.5°C 47.0°F8.3°C 99% 0.6 mph SE1.0 kmh SE 1.6 mph2.6 kmh 30.22 in1023.4 mb 0.00 in0.0 mm 0.00 in/hr0.0 mm/hr 0.00 in0.0 mm
03:24 AM 47.5°F8.6°C 47.2°F8.4°C 99% 0.5 mph SE0.8 kmh SE 1.6 mph2.6 kmh 30.22 in1023.4 mb 0.00 in0.0 mm 0.00 in/hr0.0 mm/hr 0.00 in0.0 mm
03:23 AM 47.5°F8.6°C 47.2°F8.4°C 99% 0.5 mph SE0.8 kmh SE 1.6 mph2.6 kmh 30.22 in1023.4 mb 0.00 in0.0 mm 0.00 in/hr0.0 mm/hr 0.00 in0.0 mm
03:22 AM 47.5°F8.6°C 47.2°F8.4°C 99% 0.5 mph SE0.8 kmh SE 1.6 mph2.6 kmh 30.22 in1023.4 mb 0.00 in0.0 mm 0.00 in/hr0.0 mm/hr 0.00 in0.0 mm
03:21 AM 47.5°F8.6°C 47.2°F8.4°C 99% 0.4 mph SE0.6 kmh SE 1.6 mph2.6 kmh 30.22 in1023.4 mb 0.00 in0.0 mm 0.00 in/hr0.0 mm/hr 0.00 in0.0 mm
03:20 AM 47.5°F8.6°C 47.2°F8.4°C 99% 0.6 mph ESE1.0 kmh ESE 2.2 mph3.5 kmh 30.22 in1023.4 mb 0.00 in0.0 mm 0.00 in/hr0.0 mm/hr 0.00 in0.0 mm
03:19 AM 47.5°F8.6°C 47.2°F8.4°C 99% 0.7 mph E1.1 kmh E 2.2 mph3.5 kmh 30.22 in1023.4 mb 0.00 in0.0 mm 0.00 in/hr0.0 mm/hr 0.00 in0.0 mm
03:18 AM 47.5°F8.6°C 47.2°F8.4°C 99% 0.7 mph E1.1 kmh E 2.2 mph3.5 kmh 30.22 in1023.4 mb 0.00 in0.0 mm 0.00 in/hr0.0 mm/hr 0.00 in0.0 mm
03:17 AM 47.3°F8.5°C 47.0°F8.3°C 99% 0.7 mph NNW1.1 kmh NNW 2.2 mph3.5 kmh 30.22 in1023.4 mb 0.00 in0.0 mm 0.00 in/hr0.0 mm/hr 0.00 in0.0 mm
03:16 AM 47.3°F8.5°C 47.0°F8.3°C 99% 0.7 mph NW1.1 kmh NW 2.2 mph3.5 kmh 30.22 in1023.4 mb 0.00 in0.0 mm 0.00 in/hr0.0 mm/hr 0.00 in0.0 mm
03:15 AM 47.3°F8.5°C 47.0°F8.3°C 99% 0.7 mph NW1.1 kmh NW 2.2 mph3.5 kmh 30.22 in1023.4 mb 0.00 in0.0 mm 0.00 in/hr0.0 mm/hr 0.00 in0.0 mm
03:14 AM 47.3°F8.5°C 47.0°F8.3°C 99% 0.7 mph NW1.1 kmh NW 2.2 mph3.5 kmh 30.22 in1023.4 mb 0.00 in0.0 mm 0.00 in/hr0.0 mm/hr 0.00 in0.0 mm
03:13 AM 47.3°F8.5°C 47.0°F8.3°C 99% 0.7 mph WNW1.1 kmh WNW 2.2 mph3.5 kmh 30.22 in1023.4 mb 0.00 in0.0 mm 0.00 in/hr0.0 mm/hr 0.00 in0.0 mm
03:12 AM 47.3°F8.5°C 47.0°F8.3°C 99% 0.8 mph WNW1.3 kmh WNW 2.2 mph3.5 kmh 30.22 in1023.4 mb 0.00 in0.0 mm 0.00 in/hr0.0 mm/hr 0.00 in0.0 mm
03:11 AM 47.3°F8.5°C 47.0°F8.3°C 99% 0.9 mph W1.4 kmh W 2.2 mph3.5 kmh 30.22 in1023.4 mb 0.00 in0.0 mm 0.00 in/hr0.0 mm/hr 0.00 in0.0 mm
03:10 AM 47.3°F8.5°C 47.0°F8.3°C 99% 0.8 mph W1.3 kmh W 2.2 mph3.5 kmh 30.22 in1023.4 mb 0.00 in0.0 mm 0.00 in/hr0.0 mm/hr 0.00 in0.0 mm
03:09 AM 47.3°F8.5°C 47.0°F8.3°C 99% 0.7 mph W1.1 kmh W 1.6 mph2.6 kmh 30.23 in1023.7 mb 0.00 in0.0 mm 0.00 in/hr0.0 mm/hr 0.00 in0.0 mm
03:08 AM 47.3°F8.5°C 47.0°F8.3°C 99% 0.8 mph W1.3 kmh W 1.6 mph2.6 kmh 30.22 in1023.4 mb 0.00 in0.0 mm 0.00 in/hr0.0 mm/hr 0.00 in0.0 mm
03:07 AM 47.3°F8.5°C 47.0°F8.3°C 99% 0.6 mph W1.0 kmh W 1.6 mph2.6 kmh 30.22 in1023.4 mb 0.00 in0.0 mm 0.00 in/hr0.0 mm/hr 0.00 in0.0 mm
03:06 AM 47.3°F8.5°C 47.0°F8.3°C 99% 0.6 mph W1.0 kmh W 1.6 mph2.6 kmh 30.22 in1023.4 mb 0.00 in0.0 mm 0.00 in/hr0.0 mm/hr 0.00 in0.0 mm
03:05 AM 47.5°F8.6°C 47.2°F8.4°C 99% 0.5 mph W0.8 kmh W 1.6 mph2.6 kmh 30.22 in1023.4 mb 0.00 in0.0 mm 0.00 in/hr0.0 mm/hr 0.00 in0.0 mm
03:04 AM 47.5°F8.6°C 47.2°F8.4°C 99% 0.5 mph W0.8 kmh W 1.6 mph2.6 kmh 30.22 in1023.4 mb 0.00 in0.0 mm 0.00 in/hr0.0 mm/hr 0.00 in0.0 mm
03:03 AM 47.5°F8.6°C 47.2°F8.4°C 99% 0.5 mph W0.8 kmh W 1.6 mph2.6 kmh 30.22 in1023.4 mb 0.00 in0.0 mm 0.00 in/hr0.0 mm/hr 0.00 in0.0 mm
03:02 AM 47.5°F8.6°C 47.2°F8.4°C 99% 0.4 mph W0.6 kmh W 1.6 mph2.6 kmh 30.22 in1023.4 mb 0.00 in0.0 mm 0.00 in/hr0.0 mm/hr 0.00 in0.0 mm
03:01 AM 47.5°F8.6°C 47.2°F8.4°C 99% 0.3 mph W0.5 kmh W 1.6 mph2.6 kmh 30.22 in1023.4 mb 0.00 in0.0 mm 0.00 in/hr0.0 mm/hr 0.00 in0.0 mm
03:00 AM 47.5°F8.6°C 47.2°F8.4°C 99% 0.3 mph W0.5 kmh W 1.6 mph2.6 kmh 30.22 in1023.4 mb 0.00 in0.0 mm 0.00 in/hr0.0 mm/hr 0.00 in0.0 mm
02:59 AM 47.5°F8.6°C 47.2°F8.4°C 99% 0.3 mph W0.5 kmh W 1.6 mph2.6 kmh 30.23 in1023.7 mb 0.00 in0.0 mm 0.00 in/hr0.0 mm/hr 0.00 in0.0 mm
02:58 AM 47.5°F8.6°C 47.2°F8.4°C 99% 0.2 mph W0.3 kmh W 0.7 mph1.1 kmh 30.22 in1023.4 mb 0.00 in0.0 mm 0.00 in/hr0.0 mm/hr 0.00 in0.0 mm
02:57 AM 47.5°F8.6°C 47.2°F8.4°C 99% 0.2 mph W0.3 kmh W 0.7 mph1.1 kmh 30.22 in1023.4 mb 0.00 in0.0 mm 0.00 in/hr0.0 mm/hr 0.00 in0.0 mm
02:56 AM 47.7°F8.7°C 47.4°F8.6°C 99% 0.2 mph W0.3 kmh W 0.7 mph1.1 kmh 30.22 in1023.4 mb 0.00 in0.0 mm 0.00 in/hr0.0 mm/hr 0.00 in0.0 mm
02:55 AM 47.7°F8.7°C 47.4°F8.6°C 99% 0.3 mph W0.5 kmh W 0.7 mph1.1 kmh 30.22 in1023.4 mb 0.00 in0.0 mm 0.00 in/hr0.0 mm/hr 0.00 in0.0 mm
02:54 AM 47.7°F8.7°C 47.4°F8.6°C 99% 0.3 mph W0.5 kmh W 0.7 mph1.1 kmh 30.22 in1023.4 mb 0.00 in0.0 mm 0.00 in/hr0.0 mm/hr 0.00 in0.0 mm
02:53 AM 47.7°F8.7°C 47.4°F8.6°C 99% 0.3 mph W0.5 kmh W 0.7 mph1.1 kmh 30.22 in1023.4 mb 0.00 in0.0 mm 0.00 in/hr0.0 mm/hr 0.00 in0.0 mm
02:52 AM 47.7°F8.7°C 47.4°F8.6°C 99% 0.4 mph W0.6 kmh W 0.7 mph1.1 kmh 30.23 in1023.7 mb 0.00 in0.0 mm 0.00 in/hr0.0 mm/hr 0.00 in0.0 mm
02:51 AM 47.7°F8.7°C 47.4°F8.6°C 99% 0.5 mph W0.8 kmh W 0.7 mph1.1 kmh 30.22 in1023.4 mb 0.00 in0.0 mm 0.00 in/hr0.0 mm/hr 0.00 in0.0 mm
02:50 AM 47.7°F8.7°C 47.4°F8.6°C 99% 0.4 mph W0.6 kmh W 0.7 mph1.1 kmh 30.22 in1023.4 mb 0.00 in0.0 mm 0.00 in/hr0.0 mm/hr 0.00 in0.0 mm
02:49 AM 47.7°F8.7°C 47.4°F8.6°C 99% 0.4 mph W0.6 kmh W 0.7 mph1.1 kmh 30.22 in1023.4 mb 0.00 in0.0 mm 0.00 in/hr0.0 mm/hr 0.00 in0.0 mm
02:48 AM 47.7°F8.7°C 47.4°F8.6°C 99% 0.4 mph W0.6 kmh W 0.7 mph1.1 kmh 30.22 in1023.4 mb 0.00 in0.0 mm 0.00 in/hr0.0 mm/hr 0.00 in0.0 mm
02:47 AM 47.8°F8.8°C 47.6°F8.7°C 99% 0.5 mph W0.8 kmh W 1.6 mph2.6 kmh 30.22 in1023.4 mb 0.00 in0.0 mm 0.00 in/hr0.0 mm/hr 0.00 in0.0 mm
02:46 AM 47.8°F8.8°C 47.6°F8.7°C 99% 0.5 mph W0.8 kmh W 1.6 mph2.6 kmh 30.22 in1023.4 mb 0.00 in0.0 mm 0.00 in/hr0.0 mm/hr 0.00 in0.0 mm
02:45 AM 47.8°F8.8°C 47.6°F8.7°C 99% 0.5 mph WNW0.8 kmh WNW 1.6 mph2.6 kmh 30.22 in1023.4 mb 0.00 in0.0 mm 0.00 in/hr0.0 mm/hr 0.00 in0.0 mm
02:44 AM 47.8°F8.8°C 47.6°F8.7°C 99% 0.5 mph WNW0.8 kmh WNW 1.6 mph2.6 kmh 30.22 in1023.4 mb 0.00 in0.0 mm 0.00 in/hr0.0 mm/hr 0.00 in0.0 mm
02:43 AM 47.8°F8.8°C 47.6°F8.7°C 99% 0.5 mph NW0.8 kmh NW 1.6 mph2.6 kmh 30.22 in1023.4 mb 0.00 in0.0 mm 0.00 in/hr0.0 mm/hr 0.00 in0.0 mm
02:42 AM 47.8°F8.8°C 47.6°F8.7°C 99% 0.5 mph NW0.8 kmh NW 1.6 mph2.6 kmh 30.22 in1023.4 mb 0.00 in0.0 mm 0.00 in/hr0.0 mm/hr 0.00 in0.0 mm
02:41 AM 48.0°F8.9°C 47.8°F8.8°C 99% 0.5 mph NW0.8 kmh NW 1.6 mph2.6 kmh 30.22 in1023.4 mb 0.00 in0.0 mm 0.00 in/hr0.0 mm/hr 0.00 in0.0 mm
02:40 AM 47.8°F8.8°C 47.6°F8.7°C 99% 0.5 mph NW0.8 kmh NW 1.6 mph2.6 kmh 30.22 in1023.4 mb 0.00 in0.0 mm 0.00 in/hr0.0 mm/hr 0.00 in0.0 mm
02:39 AM 48.0°F8.9°C 47.8°F8.8°C 99% 0.5 mph NNW0.8 kmh NNW 1.6 mph2.6 kmh 30.22 in1023.4 mb 0.00 in0.0 mm 0.00 in/hr0.0 mm/hr 0.00 in0.0 mm
02:38 AM 48.0°F8.9°C 47.8°F8.8°C 99% 0.6 mph N1.0 kmh N 1.6 mph2.6 kmh 30.22 in1023.4 mb 0.00 in0.0 mm 0.00 in/hr0.0 mm/hr 0.00 in0.0 mm
02:37 AM 48.0°F8.9°C 47.8°F8.8°C 99% 0.6 mph N1.0 kmh N 1.6 mph2.6 kmh 30.22 in1023.4 mb 0.00 in0.0 mm 0.00 in/hr0.0 mm/hr 0.00 in0.0 mm
02:36 AM 48.0°F8.9°C 47.8°F8.8°C 99% 0.6 mph NNE1.0 kmh NNE 1.6 mph2.6 kmh 30.22 in1023.4 mb 0.00 in0.0 mm 0.00 in/hr0.0 mm/hr 0.00 in0.0 mm
02:35 AM 48.0°F8.9°C 47.8°F8.8°C 99% 0.6 mph NNE1.0 kmh NNE 1.6 mph2.6 kmh 30.22 in1023.4 mb 0.00 in0.0 mm 0.00 in/hr0.0 mm/hr 0.00 in0.0 mm
02:34 AM 48.0°F8.9°C 47.8°F8.8°C 99% 0.7 mph NE1.1 kmh NE 2.2 mph3.5 kmh 30.22 in1023.4 mb 0.00 in0.0 mm 0.00 in/hr0.0 mm/hr 0.00 in0.0 mm
02:33 AM 48.0°F8.9°C 47.8°F8.8°C 99% 0.8 mph NE1.3 kmh NE 2.2 mph3.5 kmh 30.22 in1023.4 mb 0.00 in0.0 mm 0.00 in/hr0.0 mm/hr 0.00 in0.0 mm
02:32 AM 48.0°F8.9°C 47.8°F8.8°C 99% 1.0 mph NNE1.6 kmh NNE 2.2 mph3.5 kmh 30.22 in1023.4 mb 0.00 in0.0 mm 0.00 in/hr0.0 mm/hr 0.00 in0.0 mm
02:31 AM 48.2°F9.0°C 47.9°F8.8°C 99% 1.0 mph N1.6 kmh N 2.2 mph3.5 kmh 30.22 in1023.4 mb 0.00 in0.0 mm 0.00 in/hr0.0 mm/hr 0.00 in0.0 mm
02:30 AM 48.2°F9.0°C 47.9°F8.8°C 99% 1.0 mph N1.6 kmh N 2.2 mph3.5 kmh 30.22 in1023.4 mb 0.00 in0.0 mm 0.00 in/hr0.0 mm/hr 0.00 in0.0 mm
02:29 AM 48.2°F9.0°C 47.9°F8.8°C 99% 1.0 mph NW1.6 kmh NW 2.2 mph3.5 kmh 30.22 in1023.4 mb 0.00 in0.0 mm 0.00 in/hr0.0 mm/hr 0.00 in0.0 mm
02:28 AM 48.2°F9.0°C 47.9°F8.8°C 99% 0.9 mph W1.4 kmh W 2.2 mph3.5 kmh 30.22 in1023.4 mb 0.00 in0.0 mm 0.00 in/hr0.0 mm/hr 0.00 in0.0 mm
02:27 AM 48.2°F9.0°C 47.9°F8.8°C 99% 0.8 mph W1.3 kmh W 2.2 mph3.5 kmh 30.22 in1023.4 mb 0.00 in0.0 mm 0.00 in/hr0.0 mm/hr 0.00 in0.0 mm
02:26 AM 48.2°F9.0°C 47.9°F8.8°C 99% 0.8 mph NW1.3 kmh NW 2.2 mph3.5 kmh 30.22 in1023.4 mb 0.00 in0.0 mm 0.00 in/hr0.0 mm/hr 0.00 in0.0 mm
02:25 AM 48.2°F9.0°C 47.9°F8.8°C 99% 0.9 mph WSW1.4 kmh WSW 2.2 mph3.5 kmh 30.22 in1023.4 mb 0.00 in0.0 mm 0.00 in/hr0.0 mm/hr 0.00 in0.0 mm
02:24 AM 48.2°F9.0°C 47.9°F8.8°C 99% 0.8 mph WSW1.3 kmh WSW 2.2 mph3.5 kmh 30.23 in1023.7 mb 0.00 in0.0 mm 0.00 in/hr0.0 mm/hr 0.00 in0.0 mm
02:23 AM 48.2°F9.0°C 47.9°F8.8°C 99% 0.6 mph WSW1.0 kmh WSW 1.6 mph2.6 kmh 30.22 in1023.4 mb 0.00 in0.0 mm 0.00 in/hr0.0 mm/hr 0.00 in0.0 mm
02:22 AM 48.2°F9.0°C 47.9°F8.8°C 99% 0.4 mph WSW0.6 kmh WSW 1.6 mph2.6 kmh 30.22 in1023.4 mb 0.00 in0.0 mm 0.00 in/hr0.0 mm/hr 0.00 in0.0 mm
02:21 AM 48.2°F9.0°C 47.9°F8.8°C 99% 0.4 mph W0.6 kmh W 1.6 mph2.6 kmh 30.22 in1023.4 mb 0.00 in0.0 mm 0.00 in/hr0.0 mm/hr 0.00 in0.0 mm
02:20 AM 48.2°F9.0°C 47.9°F8.8°C 99% 0.4 mph W0.6 kmh W 1.6 mph2.6 kmh 30.22 in1023.4 mb 0.00 in0.0 mm 0.00 in/hr0.0 mm/hr 0.00 in0.0 mm
02:19 AM 48.4°F9.1°C 48.1°F8.9°C 99% 0.4 mph W0.6 kmh W 1.6 mph2.6 kmh 30.22 in1023.4 mb 0.00 in0.0 mm 0.00 in/hr0.0 mm/hr 0.00 in0.0 mm
02:18 AM 48.4°F9.1°C 48.1°F8.9°C 99% 0.3 mph WSW0.5 kmh WSW 1.6 mph2.6 kmh 30.22 in1023.4 mb 0.00 in0.0 mm 0.00 in/hr0.0 mm/hr 0.00 in0.0 mm
02:17 AM 48.4°F9.1°C 48.1°F8.9°C 99% 0.4 mph WSW0.6 kmh WSW 1.6 mph2.6 kmh 30.22 in1023.4 mb 0.00 in0.0 mm 0.00 in/hr0.0 mm/hr 0.00 in0.0 mm
02:16 AM 48.4°F9.1°C 48.1°F8.9°C 99% 0.4 mph WSW0.6 kmh WSW 1.6 mph2.6 kmh 30.23 in1023.7 mb 0.00 in0.0 mm 0.00 in/hr0.0 mm/hr 0.00 in0.0 mm
02:15 AM 48.4°F9.1°C 48.1°F8.9°C 99% 0.4 mph WSW0.6 kmh WSW 1.6 mph2.6 kmh 30.22 in1023.4 mb 0.00 in0.0 mm 0.00 in/hr0.0 mm/hr 0.00 in0.0 mm
02:14 AM 48.4°F9.1°C 48.1°F8.9°C 99% 0.3 mph W0.5 kmh W 0.7 mph1.1 kmh 30.23 in1023.7 mb 0.00 in0.0 mm 0.00 in/hr0.0 mm/hr 0.00 in0.0 mm
02:13 AM 48.6°F9.2°C 48.3°F9.1°C 99% 0.3 mph W0.5 kmh W 0.7 mph1.1 kmh 30.23 in1023.7 mb 0.00 in0.0 mm 0.00 in/hr0.0 mm/hr 0.00 in0.0 mm
02:12 AM 48.6°F9.2°C 48.3°F9.1°C 99% 0.3 mph W0.5 kmh W 0.7 mph1.1 kmh 30.22 in1023.4 mb 0.00 in0.0 mm 0.00 in/hr0.0 mm/hr 0.00 in0.0 mm
02:11 AM 48.6°F9.2°C 48.3°F9.1°C 99% 0.3 mph W0.5 kmh W 0.7 mph1.1 kmh 30.23 in1023.7 mb 0.00 in0.0 mm 0.00 in/hr0.0 mm/hr 0.00 in0.0 mm
02:10 AM 48.6°F9.2°C 48.3°F9.1°C 99% 0.4 mph W0.6 kmh W 1.6 mph2.6 kmh 30.23 in1023.7 mb 0.00 in0.0 mm 0.00 in/hr0.0 mm/hr 0.00 in0.0 mm
02:09 AM 48.6°F9.2°C 48.3°F9.1°C 99% 0.6 mph W1.0 kmh W 1.6 mph2.6 kmh 30.23 in1023.7 mb 0.00 in0.0 mm 0.00 in/hr0.0 mm/hr 0.00 in0.0 mm
02:08 AM 48.6°F9.2°C 48.3°F9.1°C 99% 0.6 mph W1.0 kmh W 1.6 mph2.6 kmh 30.23 in1023.7 mb 0.00 in0.0 mm 0.00 in/hr0.0 mm/hr 0.00 in0.0 mm
02:07 AM 48.6°F9.2°C 48.3°F9.1°C 99% 0.6 mph W1.0 kmh W 1.6 mph2.6 kmh 30.23 in1023.7 mb 0.00 in0.0 mm 0.00 in/hr0.0 mm/hr 0.00 in0.0 mm
02:06 AM 48.6°F9.2°C 48.3°F9.1°C 99% 0.5 mph W0.8 kmh W 1.6 mph2.6 kmh 30.23 in1023.7 mb 0.00 in0.0 mm 0.00 in/hr0.0 mm/hr 0.00 in0.0 mm
02:05 AM 48.7°F9.3°C 48.5°F9.2°C 99% 0.5 mph W0.8 kmh W 1.6 mph2.6 kmh 30.23 in1023.7 mb 0.00 in0.0 mm 0.00 in/hr0.0 mm/hr 0.00 in0.0 mm
02:04 AM 48.7°F9.3°C 48.5°F9.2°C 99% 0.7 mph W1.1 kmh W 3.1 mph5.0 kmh 30.23 in1023.7 mb 0.00 in0.0 mm 0.00 in/hr0.0 mm/hr 0.00 in0.0 mm
02:03 AM 48.7°F9.3°C 48.5°F9.2°C 99% 1.0 mph WSW1.6 kmh WSW 3.1 mph5.0 kmh 30.22 in1023.4 mb 0.00 in0.0 mm 0.00 in/hr0.0 mm/hr 0.00 in0.0 mm
02:02 AM 48.7°F9.3°C 48.5°F9.2°C 99% 1.2 mph WSW1.9 kmh WSW 3.1 mph5.0 kmh 30.22 in1023.4 mb 0.00 in0.0 mm 0.00 in/hr0.0 mm/hr 0.00 in0.0 mm
02:01 AM 48.7°F9.3°C 48.5°F9.2°C 99% 1.3 mph WSW2.1 kmh WSW 3.1 mph5.0 kmh 30.23 in1023.7 mb 0.00 in0.0 mm 0.00 in/hr0.0 mm/hr 0.00 in0.0 mm
02:00 AM 48.7°F9.3°C 48.5°F9.2°C 99% 1.2 mph WSW1.9 kmh WSW 3.1 mph5.0 kmh 30.23 in1023.7 mb 0.00 in0.0 mm 0.00 in/hr0.0 mm/hr 0.00 in0.0 mm
01:59 AM 48.7°F9.3°C 48.5°F9.2°C 99% 1.1 mph WSW1.8 kmh WSW 3.1 mph5.0 kmh 30.23 in1023.7 mb 0.00 in0.0 mm 0.00 in/hr0.0 mm/hr 0.00 in0.0 mm
01:58 AM 48.7°F9.3°C 48.5°F9.2°C 99% 1.1 mph WSW1.8 kmh WSW 3.1 mph5.0 kmh 30.22 in1023.4 mb 0.00 in0.0 mm 0.00 in/hr0.0 mm/hr 0.00 in0.0 mm
01:57 AM 48.7°F9.3°C 48.5°F9.2°C 99% 1.2 mph WSW1.9 kmh WSW 3.1 mph5.0 kmh 30.23 in1023.7 mb 0.00 in0.0 mm 0.00 in/hr0.0 mm/hr 0.00 in0.0 mm
01:56 AM 48.7°F9.3°C 48.5°F9.2°C 99% 1.2 mph WSW1.9 kmh WSW 3.1 mph5.0 kmh 30.22 in1023.4 mb 0.00 in0.0 mm 0.00 in/hr0.0 mm/hr 0.00 in0.0 mm
01:55 AM 48.7°F9.3°C 48.5°F9.2°C 99% 1.2 mph WSW1.9 kmh WSW 3.1 mph5.0 kmh 30.22 in1023.4 mb 0.00 in0.0 mm 0.00 in/hr0.0 mm/hr 0.00 in0.0 mm
01:54 AM 48.7°F9.3°C 48.5°F9.2°C 99% 1.1 mph WSW1.8 kmh WSW 3.1 mph5.0 kmh 30.23 in1023.7 mb 0.00 in0.0 mm 0.00 in/hr0.0 mm/hr 0.00 in0.0 mm
01:53 AM 48.7°F9.3°C 48.5°F9.2°C 99% 0.9 mph W1.4 kmh W 2.2 mph3.5 kmh 30.22 in1023.4 mb 0.00 in0.0 mm 0.00 in/hr0.0 mm/hr 0.00 in0.0 mm
01:52 AM 48.7°F9.3°C 48.5°F9.2°C 99% 0.8 mph WNW1.3 kmh WNW 2.2 mph3.5 kmh 30.22 in1023.4 mb 0.00 in0.0 mm 0.00 in/hr0.0 mm/hr 0.00 in0.0 mm
01:51 AM 48.7°F9.3°C 48.5°F9.2°C 99% 0.9 mph NW1.4 kmh NW 2.2 mph3.5 kmh 30.23 in1023.7 mb 0.00 in0.0 mm 0.00 in/hr0.0 mm/hr 0.00 in0.0 mm
01:50 AM 48.7°F9.3°C 48.5°F9.2°C 99% 1.1 mph NW1.8 kmh NW 2.2 mph3.5 kmh 30.23 in1023.7 mb 0.00 in0.0 mm 0.00 in/hr0.0 mm/hr 0.00 in0.0 mm
01:49 AM 48.7°F9.3°C 48.5°F9.2°C 99% 1.2 mph NW1.9 kmh NW 2.2 mph3.5 kmh 30.23 in1023.7 mb 0.00 in0.0 mm 0.00 in/hr0.0 mm/hr 0.00 in0.0 mm
01:48 AM 48.7°F9.3°C 48.5°F9.2°C 99% 1.2 mph NW1.9 kmh NW 2.2 mph3.5 kmh 30.23 in1023.7 mb 0.00 in0.0 mm 0.00 in/hr0.0 mm/hr 0.00 in0.0 mm
01:47 AM 48.9°F9.4°C 48.7°F9.3°C 99% 1.4 mph NW2.3 kmh NW 3.1 mph5.0 kmh 30.23 in1023.7 mb 0.00 in0.0 mm 0.00 in/hr0.0 mm/hr 0.00 in0.0 mm
01:46 AM 48.9°F9.4°C 48.7°F9.3°C 99% 1.6 mph NW2.6 kmh NW 3.1 mph5.0 kmh 30.23 in1023.7 mb 0.00 in0.0 mm 0.00 in/hr0.0 mm/hr 0.00 in0.0 mm
01:45 AM 48.9°F9.4°C 48.7°F9.3°C 99% 1.7 mph NW2.7 kmh NW 3.1 mph5.0 kmh 30.23 in1023.7 mb 0.00 in0.0 mm 0.00 in/hr0.0 mm/hr 0.00 in0.0 mm
01:44 AM 48.9°F9.4°C 48.7°F9.3°C 99% 1.6 mph NW2.6 kmh NW 3.1 mph5.0 kmh 30.23 in1023.7 mb 0.00 in0.0 mm 0.00 in/hr0.0 mm/hr 0.00 in0.0 mm
01:43 AM 48.9°F9.4°C 48.7°F9.3°C 99% 1.7 mph NW2.7 kmh NW 3.1 mph5.0 kmh 30.24 in1024.0 mb 0.00 in0.0 mm 0.00 in/hr0.0 mm/hr 0.00 in0.0 mm
01:42 AM 48.7°F9.3°C 48.5°F9.2°C 99% 1.9 mph NW3.1 kmh NW 3.1 mph5.0 kmh 30.23 in1023.7 mb 0.00 in0.0 mm 0.00 in/hr0.0 mm/hr 0.00 in0.0 mm
01:41 AM 48.7°F9.3°C 48.5°F9.2°C 99% 1.9 mph WNW3.1 kmh WNW 3.1 mph5.0 kmh 30.23 in1023.7 mb 0.00 in0.0 mm 0.00 in/hr0.0 mm/hr 0.00 in0.0 mm
01:40 AM 48.7°F9.3°C 48.5°F9.2°C 99% 2.1 mph WNW3.4 kmh WNW 3.8 mph6.1 kmh 30.23 in1023.7 mb 0.00 in0.0 mm 0.00 in/hr0.0 mm/hr 0.00 in0.0 mm
01:39 AM 48.7°F9.3°C 48.5°F9.2°C 99% 2.3 mph WNW3.7 kmh WNW 3.8 mph6.1 kmh 30.23 in1023.7 mb 0.00 in0.0 mm 0.00 in/hr0.0 mm/hr 0.00 in0.0 mm
01:38 AM 48.7°F9.3°C 48.5°F9.2°C 99% 2.3 mph WNW3.7 kmh WNW 3.8 mph6.1 kmh 30.23 in1023.7 mb 0.00 in0.0 mm 0.00 in/hr0.0 mm/hr 0.00 in0.0 mm
01:37 AM 48.7°F9.3°C 48.5°F9.2°C 99% 2.2 mph WNW3.5 kmh WNW 3.8 mph6.1 kmh 30.23 in1023.7 mb 0.00 in0.0 mm 0.00 in/hr0.0 mm/hr 0.00 in0.0 mm
01:36 AM 48.7°F9.3°C 48.5°F9.2°C 99% 2.0 mph WNW3.2 kmh WNW 3.8 mph6.1 kmh 30.23 in1023.7 mb 0.00 in0.0 mm 0.00 in/hr0.0 mm/hr 0.00 in0.0 mm
01:35 AM 48.7°F9.3°C 48.5°F9.2°C 99% 1.9 mph WNW3.1 kmh WNW 3.8 mph6.1 kmh 30.23 in1023.7 mb 0.00 in0.0 mm 0.00 in/hr0.0 mm/hr 0.00 in0.0 mm
01:34 AM 48.7°F9.3°C 48.5°F9.2°C 99% 1.8 mph WNW2.9 kmh WNW 3.8 mph6.1 kmh 30.22 in1023.4 mb 0.00 in0.0 mm 0.00 in/hr0.0 mm/hr 0.00 in0.0 mm
01:33 AM 48.7°F9.3°C 48.5°F9.2°C 99% 1.7 mph NW2.7 kmh NW 3.8 mph6.1 kmh 30.23 in1023.7 mb 0.00 in0.0 mm 0.00 in/hr0.0 mm/hr 0.00 in0.0 mm
01:32 AM 48.6°F9.2°C 48.3°F9.1°C 99% 1.6 mph NW2.6 kmh NW 3.8 mph6.1 kmh 30.23 in1023.7 mb 0.00 in0.0 mm 0.00 in/hr0.0 mm/hr 0.00 in0.0 mm
01:31 AM 48.6°F9.2°C 48.3°F9.1°C 99% 1.4 mph NW2.3 kmh NW 3.8 mph6.1 kmh 30.23 in1023.7 mb 0.00 in0.0 mm 0.00 in/hr0.0 mm/hr 0.00 in0.0 mm
01:30 AM 48.6°F9.2°C 48.3°F9.1°C 99% 1.1 mph N1.8 kmh N 3.8 mph6.1 kmh 30.23 in1023.7 mb 0.00 in0.0 mm 0.00 in/hr0.0 mm/hr 0.00 in0.0 mm
01:29 AM 48.6°F9.2°C 48.3°F9.1°C 99% 0.8 mph NNE1.3 kmh NNE 3.1 mph5.0 kmh 30.23 in1023.7 mb 0.00 in0.0 mm 0.00 in/hr0.0 mm/hr 0.00 in0.0 mm
01:28 AM 48.6°F9.2°C 48.3°F9.1°C 99% 0.6 mph NE1.0 kmh NE 1.6 mph2.6 kmh 30.22 in1023.4 mb 0.00 in0.0 mm 0.00 in/hr0.0 mm/hr 0.00 in0.0 mm
01:27 AM 48.6°F9.2°C 48.3°F9.1°C 99% 0.5 mph NE0.8 kmh NE 1.6 mph2.6 kmh 30.22 in1023.4 mb 0.00 in0.0 mm 0.00 in/hr0.0 mm/hr 0.00 in0.0 mm
01:26 AM 48.6°F9.2°C 48.3°F9.1°C 99% 0.6 mph NE1.0 kmh NE 1.6 mph2.6 kmh 30.22 in1023.4 mb 0.00 in0.0 mm 0.00 in/hr0.0 mm/hr 0.00 in0.0 mm
01:25 AM 48.6°F9.2°C 48.3°F9.1°C 99% 0.6 mph NE1.0 kmh NE 1.6 mph2.6 kmh 30.22 in1023.4 mb 0.00 in0.0 mm 0.00 in/hr0.0 mm/hr 0.00 in0.0 mm
01:24 AM 48.6°F9.2°C 48.3°F9.1°C 99% 0.5 mph NE0.8 kmh NE 1.6 mph2.6 kmh 30.22 in1023.4 mb 0.00 in0.0 mm 0.00 in/hr0.0 mm/hr 0.00 in0.0 mm
01:23 AM 48.6°F9.2°C 48.3°F9.1°C 99% 0.5 mph ENE0.8 kmh ENE 1.6 mph2.6 kmh 30.22 in1023.4 mb 0.00 in0.0 mm 0.00 in/hr0.0 mm/hr 0.00 in0.0 mm
01:22 AM 48.6°F9.2°C 48.3°F9.1°C 99% 0.5 mph S0.8 kmh S 1.6 mph2.6 kmh 30.22 in1023.4 mb 0.00 in0.0 mm 0.00 in/hr0.0 mm/hr 0.00 in0.0 mm
01:21 AM 48.6°F9.2°C 48.3°F9.1°C 99% 0.6 mph SSW1.0 kmh SSW 1.6 mph2.6 kmh 30.22 in1023.4 mb 0.00 in0.0 mm 0.00 in/hr0.0 mm/hr 0.00 in0.0 mm
01:20 AM 48.7°F9.3°C 48.5°F9.2°C 99% 0.6 mph SSW1.0 kmh SSW 1.6 mph2.6 kmh 30.22 in1023.4 mb 0.00 in0.0 mm 0.00 in/hr0.0 mm/hr 0.00 in0.0 mm
01:19 AM 48.7°F9.3°C 48.5°F9.2°C 99% 0.5 mph SW0.8 kmh SW 1.6 mph2.6 kmh 30.22 in1023.4 mb 0.00 in0.0 mm 0.00 in/hr0.0 mm/hr 0.00 in0.0 mm
01:18 AM 48.7°F9.3°C 48.5°F9.2°C 99% 0.5 mph SW0.8 kmh SW 1.6 mph2.6 kmh 30.22 in1023.4 mb 0.00 in0.0 mm 0.00 in/hr0.0 mm/hr 0.00 in0.0 mm
01:17 AM 48.7°F9.3°C 48.5°F9.2°C 99% 0.5 mph SW0.8 kmh SW 1.6 mph2.6 kmh 30.22 in1023.4 mb 0.00 in0.0 mm 0.00 in/hr0.0 mm/hr 0.00 in0.0 mm
01:16 AM 48.7°F9.3°C 48.5°F9.2°C 99% 0.5 mph SW0.8 kmh SW 1.6 mph2.6 kmh 30.22 in1023.4 mb 0.00 in0.0 mm 0.00 in/hr0.0 mm/hr 0.00 in0.0 mm
01:15 AM 48.7°F9.3°C 48.5°F9.2°C 99% 0.5 mph WSW0.8 kmh WSW 1.6 mph2.6 kmh 30.22 in1023.4 mb 0.00 in0.0 mm 0.00 in/hr0.0 mm/hr 0.00 in0.0 mm
01:14 AM 48.7°F9.3°C 48.5°F9.2°C 99% 0.5 mph WSW0.8 kmh WSW 1.6 mph2.6 kmh 30.22 in1023.4 mb 0.00 in0.0 mm 0.00 in/hr0.0 mm/hr 0.00 in0.0 mm
01:13 AM 48.7°F9.3°C 48.5°F9.2°C 99% 0.4 mph WNW0.6 kmh WNW 1.6 mph2.6 kmh 30.22 in1023.4 mb 0.00 in0.0 mm 0.00 in/hr0.0 mm/hr 0.00 in0.0 mm
01:12 AM 48.9°F9.4°C 48.7°F9.3°C 99% 0.2 mph N0.3 kmh N 1.6 mph2.6 kmh 30.22 in1023.4 mb 0.00 in0.0 mm 0.00 in/hr0.0 mm/hr 0.00 in0.0 mm
01:11 AM 48.9°F9.4°C 48.7°F9.3°C 99% 0.2 mph N0.3 kmh N 0.7 mph1.1 kmh 30.22 in1023.4 mb 0.00 in0.0 mm 0.00 in/hr0.0 mm/hr 0.00 in0.0 mm
01:10 AM 48.9°F9.4°C 48.7°F9.3°C 99% 0.2 mph N0.3 kmh N 0.7 mph1.1 kmh 30.22 in1023.4 mb 0.00 in0.0 mm 0.00 in/hr0.0 mm/hr 0.00 in0.0 mm
01:09 AM 48.9°F9.4°C 48.7°F9.3°C 99% 0.2 mph N0.3 kmh N 0.7 mph1.1 kmh 30.22 in1023.4 mb 0.00 in0.0 mm 0.00 in/hr0.0 mm/hr 0.00 in0.0 mm
01:08 AM 48.9°F9.4°C 48.7°F9.3°C 99% 0.2 mph N0.3 kmh N 0.7 mph1.1 kmh 30.22 in1023.4 mb 0.00 in0.0 mm 0.00 in/hr0.0 mm/hr 0.00 in0.0 mm
01:07 AM 49.1°F9.5°C 48.8°F9.3°C 99% 0.1 mph N0.2 kmh N 0.7 mph1.1 kmh 30.22 in1023.4 mb 0.00 in0.0 mm 0.00 in/hr0.0 mm/hr 0.00 in0.0 mm
01:06 AM 49.1°F9.5°C 48.8°F9.3°C 99% Calm Calm 0.7 mph1.1 kmh 30.22 in1023.4 mb 0.00 in0.0 mm 0.00 in/hr0.0 mm/hr 0.00 in0.0 mm
01:05 AM 49.1°F9.5°C 48.8°F9.3°C 99% 0.1 mph N0.2 kmh N 0.7 mph1.1 kmh 30.22 in1023.4 mb 0.00 in0.0 mm 0.00 in/hr0.0 mm/hr 0.00 in0.0 mm
01:04 AM 49.1°F9.5°C 48.8°F9.3°C 99% 0.1 mph N0.2 kmh N 0.7 mph1.1 kmh 30.22 in1023.4 mb 0.00 in0.0 mm 0.00 in/hr0.0 mm/hr 0.00 in0.0 mm
01:03 AM 49.3°F9.6°C 49.0°F9.4°C 99% 0.1 mph N0.2 kmh N 0.7 mph1.1 kmh 30.22 in1023.4 mb 0.00 in0.0 mm 0.00 in/hr0.0 mm/hr 0.00 in0.0 mm
01:02 AM 49.3°F9.6°C 49.0°F9.4°C 99% 0.2 mph N0.3 kmh N 0.7 mph1.1 kmh 30.22 in1023.4 mb 0.00 in0.0 mm 0.00 in/hr0.0 mm/hr 0.00 in0.0 mm
01:01 AM 49.3°F9.6°C 49.0°F9.4°C 99% 0.3 mph N0.5 kmh N 0.7 mph1.1 kmh 30.22 in1023.4 mb 0.00 in0.0 mm 0.00 in/hr0.0 mm/hr 0.00 in0.0 mm
01:00 AM 49.3°F9.6°C 49.0°F9.4°C 99% 0.4 mph N0.6 kmh N 1.6 mph2.6 kmh 30.22 in1023.4 mb 0.00 in0.0 mm 0.00 in/hr0.0 mm/hr 0.00 in0.0 mm
12:59 AM 49.5°F9.7°C 49.2°F9.6°C 99% 0.5 mph N0.8 kmh N 1.6 mph2.6 kmh 30.22 in1023.4 mb 0.00 in0.0 mm 0.00 in/hr0.0 mm/hr 0.00 in0.0 mm
12:58 AM 49.5°F9.7°C 49.2°F9.6°C 99% 0.7 mph N1.1 kmh N 1.6 mph2.6 kmh 30.22 in1023.4 mb 0.00 in0.0 mm 0.00 in/hr0.0 mm/hr 0.00 in0.0 mm
12:57 AM 49.5°F9.7°C 49.2°F9.6°C 99% 0.8 mph N1.3 kmh N 1.6 mph2.6 kmh 30.22 in1023.4 mb 0.00 in0.0 mm 0.00 in/hr0.0 mm/hr 0.00 in0.0 mm
12:56 AM 49.5°F9.7°C 49.2°F9.6°C 99% 0.8 mph N1.3 kmh N 1.6 mph2.6 kmh 30.22 in1023.4 mb 0.00 in0.0 mm 0.00 in/hr0.0 mm/hr 0.00 in0.0 mm
12:55 AM 49.5°F9.7°C 49.2°F9.6°C 99% 0.8 mph N1.3 kmh N 1.6 mph2.6 kmh 30.22 in1023.4 mb 0.00 in0.0 mm 0.00 in/hr0.0 mm/hr 0.00 in0.0 mm
12:54 AM 49.5°F9.7°C 49.2°F9.6°C 99% 0.8 mph N1.3 kmh N 1.6 mph2.6 kmh 30.22 in1023.4 mb 0.00 in0.0 mm 0.00 in/hr0.0 mm/hr 0.00 in0.0 mm
12:53 AM 49.5°F9.7°C 49.2°F9.6°C 99% 0.7 mph N1.1 kmh N 1.6 mph2.6 kmh 30.22 in1023.4 mb 0.00 in0.0 mm 0.00 in/hr0.0 mm/hr 0.00 in0.0 mm
12:52 AM 49.5°F9.7°C 49.2°F9.6°C 99% 0.6 mph N1.0 kmh N 1.6 mph2.6 kmh 30.22 in1023.4 mb 0.00 in0.0 mm 0.00 in/hr0.0 mm/hr 0.00 in0.0 mm
12:51 AM 49.5°F9.7°C 49.2°F9.6°C 99% 0.6 mph N1.0 kmh N 1.6 mph2.6 kmh 30.22 in1023.4 mb 0.00 in0.0 mm 0.00 in/hr0.0 mm/hr 0.00 in0.0 mm
12:50 AM 49.6°F9.8°C 49.4°F9.7°C 99% 0.5 mph N0.8 kmh N 1.6 mph2.6 kmh 30.22 in1023.4 mb 0.00 in0.0 mm 0.00 in/hr0.0 mm/hr 0.00 in0.0 mm
12:49 AM 49.6°F9.8°C 49.4°F9.7°C 99% 0.3 mph N0.5 kmh N 1.6 mph2.6 kmh 30.22 in1023.4 mb 0.00 in0.0 mm 0.00 in/hr0.0 mm/hr 0.00 in0.0 mm
12:48 AM 49.6°F9.8°C 49.4°F9.7°C 99% 0.2 mph N0.3 kmh N 1.6 mph2.6 kmh 30.22 in1023.4 mb 0.00 in0.0 mm 0.00 in/hr0.0 mm/hr 0.00 in0.0 mm
12:47 AM 49.6°F9.8°C 49.4°F9.7°C 99% Calm Calm -- 30.22 in1023.4 mb 0.00 in0.0 mm 0.00 in/hr0.0 mm/hr 0.00 in0.0 mm
12:46 AM 49.6°F9.8°C 49.4°F9.7°C 99% Calm Calm -- 30.22 in1023.4 mb 0.00 in0.0 mm 0.00 in/hr0.0 mm/hr 0.00 in0.0 mm
12:45 AM 49.6°F9.8°C 49.4°F9.7°C 99% Calm Calm -- 30.22 in1023.4 mb 0.00 in0.0 mm 0.00 in/hr0.0 mm/hr 0.00 in0.0 mm
12:44 AM 49.6°F9.8°C 49.4°F9.7°C 99% Calm Calm 0.7 mph1.1 kmh 30.22 in1023.4 mb 0.00 in0.0 mm 0.00 in/hr0.0 mm/hr 0.00 in0.0 mm
12:43 AM 49.8°F9.9°C 49.6°F9.8°C 99% 0.2 mph N0.3 kmh N 2.2 mph3.5 kmh 30.22 in1023.4 mb 0.00 in0.0 mm 0.00 in/hr0.0 mm/hr 0.00 in0.0 mm
12:42 AM 49.8°F9.9°C 49.6°F9.8°C 99% 0.3 mph N0.5 kmh N 2.2 mph3.5 kmh 30.22 in1023.4 mb 0.00 in0.0 mm 0.00 in/hr0.0 mm/hr 0.00 in0.0 mm
12:41 AM 49.8°F9.9°C 49.6°F9.8°C 99% 0.4 mph N0.6 kmh N 2.2 mph3.5 kmh 30.22 in1023.4 mb 0.00 in0.0 mm 0.00 in/hr0.0 mm/hr 0.00 in0.0 mm
12:40 AM 49.8°F9.9°C 49.6°F9.8°C 99% 0.4 mph N0.6 kmh N 2.2 mph3.5 kmh 30.22 in1023.4 mb 0.00 in0.0 mm 0.00 in/hr0.0 mm/hr 0.00 in0.0 mm
12:39 AM 50.0°F10.0°C 49.7°F9.8°C 99% 0.5 mph N0.8 kmh N 2.2 mph3.5 kmh 30.22 in1023.4 mb 0.00 in0.0 mm 0.00 in/hr0.0 mm/hr 0.00 in0.0 mm
12:38 AM 49.8°F9.9°C 49.6°F9.8°C 99% 0.6 mph N1.0 kmh N 2.2 mph3.5 kmh 30.22 in1023.4 mb 0.00 in0.0 mm 0.00 in/hr0.0 mm/hr 0.00 in0.0 mm
12:37 AM 49.8°F9.9°C 49.6°F9.8°C 99% 0.7 mph N1.1 kmh N 2.2 mph3.5 kmh 30.22 in1023.4 mb 0.00 in0.0 mm 0.00 in/hr0.0 mm/hr 0.00 in0.0 mm
12:36 AM 49.8°F9.9°C 49.6°F9.8°C 99% 0.9 mph N1.4 kmh N 2.2 mph3.5 kmh 30.22 in1023.4 mb 0.00 in0.0 mm 0.00 in/hr0.0 mm/hr 0.00 in0.0 mm
12:35 AM 50.0°F10.0°C 49.7°F9.8°C 99% 1.0 mph N1.6 kmh N 2.2 mph3.5 kmh 30.22 in1023.4 mb 0.00 in0.0 mm 0.00 in/hr0.0 mm/hr 0.00 in0.0 mm
12:34 AM 50.0°F10.0°C 49.7°F9.8°C 99% 1.0 mph N1.6 kmh N 2.2 mph3.5 kmh 30.22 in1023.4 mb 0.00 in0.0 mm 0.00 in/hr0.0 mm/hr 0.00 in0.0 mm
12:33 AM 50.0°F10.0°C 49.7°F9.8°C 99% 0.9 mph NNW1.4 kmh NNW 2.2 mph3.5 kmh 30.22 in1023.4 mb 0.00 in0.0 mm 0.00 in/hr0.0 mm/hr 0.00 in0.0 mm
12:32 AM 50.0°F10.0°C 49.7°F9.8°C 99% 0.8 mph WNW1.3 kmh WNW 2.2 mph3.5 kmh 30.22 in1023.4 mb 0.00 in0.0 mm 0.00 in/hr0.0 mm/hr 0.00 in0.0 mm
12:31 AM 50.0°F10.0°C 49.7°F9.8°C 99% 0.8 mph WSW1.3 kmh WSW 2.2 mph3.5 kmh 30.22 in1023.4 mb 0.00 in0.0 mm 0.00 in/hr0.0 mm/hr 0.00 in0.0 mm
12:30 AM 50.0°F10.0°C 49.7°F9.8°C 99% 0.8 mph WSW1.3 kmh WSW 2.2 mph3.5 kmh 30.22 in1023.4 mb 0.00 in0.0 mm 0.00 in/hr0.0 mm/hr 0.00 in0.0 mm
12:29 AM 50.0°F10.0°C 49.7°F9.8°C 99% 0.8 mph WSW1.3 kmh WSW 2.2 mph3.5 kmh 30.22 in1023.4 mb 0.00 in0.0 mm 0.00 in/hr0.0 mm/hr 0.00 in0.0 mm
12:28 AM 50.2°F10.1°C 49.9°F9.9°C 99% 0.7 mph SW1.1 kmh SW 2.2 mph3.5 kmh 30.22 in1023.4 mb 0.00 in0.0 mm 0.00 in/hr0.0 mm/hr 0.00 in0.0 mm
12:27 AM 50.2°F10.1°C 49.9°F9.9°C 99% 0.5 mph SW0.8 kmh SW 2.2 mph3.5 kmh 30.22 in1023.4 mb 0.00 in0.0 mm 0.00 in/hr0.0 mm/hr 0.00 in0.0 mm
12:26 AM 50.2°F10.1°C 49.9°F9.9°C 99% 0.3 mph SW0.5 kmh SW 1.6 mph2.6 kmh 30.22 in1023.4 mb 0.00 in0.0 mm 0.00 in/hr0.0 mm/hr 0.00 in0.0 mm
12:25 AM 50.2°F10.1°C 49.9°F9.9°C 99% 0.3 mph SW0.5 kmh SW 1.6 mph2.6 kmh 30.22 in1023.4 mb 0.00 in0.0 mm 0.00 in/hr0.0 mm/hr 0.00 in0.0 mm
12:24 AM 50.2°F10.1°C 49.9°F9.9°C 99% 0.3 mph SW0.5 kmh SW 1.6 mph2.6 kmh 30.22 in1023.4 mb 0.00 in0.0 mm 0.00 in/hr0.0 mm/hr 0.00 in0.0 mm
12:23 AM 50.2°F10.1°C 49.9°F9.9°C 99% 0.5 mph WSW0.8 kmh WSW 1.6 mph2.6 kmh 30.22 in1023.4 mb 0.00 in0.0 mm 0.00 in/hr0.0 mm/hr 0.00 in0.0 mm
12:22 AM 50.2°F10.1°C 49.9°F9.9°C 99% 0.5 mph WSW0.8 kmh WSW 1.6 mph2.6 kmh 30.22 in1023.4 mb 0.00 in0.0 mm 0.00 in/hr0.0 mm/hr 0.00 in0.0 mm
12:21 AM 50.2°F10.1°C 49.9°F9.9°C 99% 0.5 mph WSW0.8 kmh WSW 1.6 mph2.6 kmh 30.22 in1023.4 mb 0.00 in0.0 mm 0.00 in/hr0.0 mm/hr 0.00 in0.0 mm
12:20 AM 50.4°F10.2°C 50.1°F10.1°C 99% 0.5 mph W0.8 kmh W 1.6 mph2.6 kmh 30.22 in1023.4 mb 0.00 in0.0 mm 0.00 in/hr0.0 mm/hr 0.00 in0.0 mm
12:19 AM 50.4°F10.2°C 50.1°F10.1°C 99% 0.6 mph W1.0 kmh W 1.6 mph2.6 kmh 30.22 in1023.4 mb 0.00 in0.0 mm 0.00 in/hr0.0 mm/hr 0.00 in0.0 mm
12:18 AM 50.4°F10.2°C 50.1°F10.1°C 99% 0.7 mph W1.1 kmh W 1.6 mph2.6 kmh 30.22 in1023.4 mb 0.00 in0.0 mm 0.00 in/hr0.0 mm/hr 0.00 in0.0 mm
12:17 AM 50.4°F10.2°C 50.1°F10.1°C 99% 0.9 mph WNW1.4 kmh WNW 1.6 mph2.6 kmh 30.22 in1023.4 mb 0.00 in0.0 mm 0.00 in/hr0.0 mm/hr 0.00 in0.0 mm
12:16 AM 50.4°F10.2°C 50.1°F10.1°C 99% 1.1 mph WNW1.8 kmh WNW 3.1 mph5.0 kmh 30.22 in1023.4 mb 0.00 in0.0 mm 0.00 in/hr0.0 mm/hr 0.00 in0.0 mm
12:15 AM 50.4°F10.2°C 50.1°F10.1°C 99% 1.3 mph WNW2.1 kmh WNW 3.1 mph5.0 kmh 30.22 in1023.4 mb 0.00 in0.0 mm 0.00 in/hr0.0 mm/hr 0.00 in0.0 mm
12:14 AM 50.4°F10.2°C 50.1°F10.1°C 99% 1.4 mph W2.3 kmh W 3.1 mph5.0 kmh 30.22 in1023.4 mb 0.00 in0.0 mm 0.00 in/hr0.0 mm/hr 0.00 in0.0 mm
12:13 AM 50.4°F10.2°C 50.1°F10.1°C 99% 1.5 mph W2.4 kmh W 3.1 mph5.0 kmh 30.22 in1023.4 mb 0.00 in0.0 mm 0.00 in/hr0.0 mm/hr 0.00 in0.0 mm
12:12 AM 50.4°F10.2°C 50.1°F10.1°C 99% 1.6 mph WSW2.6 kmh WSW 3.1 mph5.0 kmh 30.22 in1023.4 mb 0.00 in0.0 mm 0.00 in/hr0.0 mm/hr 0.00 in0.0 mm
12:11 AM 50.4°F10.2°C 50.1°F10.1°C 99% 1.7 mph WSW2.7 kmh WSW 3.1 mph5.0 kmh 30.22 in1023.4 mb 0.00 in0.0 mm 0.00 in/hr0.0 mm/hr 0.00 in0.0 mm
12:10 AM 50.4°F10.2°C 50.1°F10.1°C 99% 1.7 mph WSW2.7 kmh WSW 3.1 mph5.0 kmh 30.22 in1023.4 mb 0.00 in0.0 mm 0.00 in/hr0.0 mm/hr 0.00 in0.0 mm
12:09 AM 50.4°F10.2°C 50.1°F10.1°C 99% 1.6 mph WSW2.6 kmh WSW 3.1 mph5.0 kmh 30.22 in1023.4 mb 0.00 in0.0 mm 0.00 in/hr0.0 mm/hr 0.00 in0.0 mm
12:08 AM 50.4°F10.2°C 50.1°F10.1°C 99% 1.6 mph WSW2.6 kmh WSW 3.1 mph5.0 kmh 30.22 in1023.4 mb 0.00 in0.0 mm 0.00 in/hr0.0 mm/hr 0.00 in0.0 mm
12:07 AM 50.4°F10.2°C 50.1°F10.1°C 99% 1.6 mph SW2.6 kmh SW 3.1 mph5.0 kmh 30.22 in1023.4 mb 0.00 in0.0 mm 0.00 in/hr0.0 mm/hr 0.00 in0.0 mm
12:06 AM 50.4°F10.2°C 50.1°F10.1°C 99% 1.5 mph SW2.4 kmh SW 3.1 mph5.0 kmh 30.22 in1023.4 mb 0.00 in0.0 mm 0.00 in/hr0.0 mm/hr 0.00 in0.0 mm
12:05 AM 50.4°F10.2°C 50.1°F10.1°C 99% 1.4 mph SW2.3 kmh SW 3.1 mph5.0 kmh 30.22 in1023.4 mb 0.00 in0.0 mm 0.00 in/hr0.0 mm/hr 0.00 in0.0 mm
12:04 AM 50.4°F10.2°C 50.1°F10.1°C 99% 1.4 mph SW2.3 kmh SW 3.1 mph5.0 kmh 30.22 in1023.4 mb 0.00 in0.0 mm 0.00 in/hr0.0 mm/hr 0.00 in0.0 mm
12:03 AM 50.4°F10.2°C 50.1°F10.1°C 99% 1.4 mph SW2.3 kmh SW 2.2 mph3.5 kmh 30.22 in1023.4 mb 0.00 in0.0 mm 0.00 in/hr0.0 mm/hr 0.00 in0.0 mm
12:02 AM 50.4°F10.2°C 50.1°F10.1°C 99% 1.4 mph SW2.3 kmh SW 2.2 mph3.5 kmh 30.22 in1023.4 mb 0.00 in0.0 mm 0.00 in/hr0.0 mm/hr 0.00 in0.0 mm
12:01 AM 50.4°F10.2°C 50.1°F10.1°C 99% 1.3 mph SW2.1 kmh SW 2.2 mph3.5 kmh 30.22 in1023.4 mb 0.00 in0.0 mm 0.00 in/hr0.0 mm/hr 0.00 in0.0 mm
12:00 AM 50.4°F10.2°C 50.1°F10.1°C 99% 1.2 mph SW1.9 kmh SW 2.2 mph3.5 kmh 30.22 in1023.4 mb 0.00 in0.0 mm 0.00 in/hr0.0 mm/hr 0.02 in0.5 mm